createdAt,value
2019-05-15T00:02:24.402Z,1.47
2019-05-15T00:04:54.062Z,1.40
2019-05-15T00:07:23.601Z,1.47
2019-05-15T00:09:51.992Z,1.60
2019-05-15T00:12:21.655Z,1.80
2019-05-15T00:14:52.709Z,1.77
2019-05-15T00:17:21.110Z,1.87
2019-05-15T00:19:49.525Z,1.40
2019-05-15T00:22:18.373Z,2.00
2019-05-15T00:24:48.958Z,1.70
2019-05-15T00:27:20.667Z,1.50
2019-05-15T00:29:49.147Z,1.70
2019-05-15T00:32:18.612Z,1.63
2019-05-15T00:34:50.518Z,1.53
2019-05-15T00:37:18.905Z,1.43
2019-05-15T00:39:48.949Z,1.60
2019-05-15T00:42:19.020Z,1.57
2019-05-15T00:44:49.368Z,1.60
2019-05-15T00:47:23.582Z,1.50
2019-05-15T00:49:51.965Z,1.83
2019-05-15T00:52:28.145Z,1.47
2019-05-15T00:54:58.949Z,1.60
2019-05-15T00:57:48.789Z,1.40
2019-05-15T01:00:22.821Z,1.60
2019-05-15T01:02:54.292Z,1.77
2019-05-15T01:05:22.676Z,1.40
2019-05-15T01:07:53.997Z,1.67
2019-05-15T01:10:29.134Z,1.63
2019-05-15T01:13:03.490Z,1.40
2019-05-15T01:15:34.821Z,1.40
2019-05-15T01:18:03.221Z,1.77
2019-05-15T01:20:31.606Z,1.53
2019-05-15T01:23:00.062Z,1.70
2019-05-15T01:25:31.550Z,1.40
2019-05-15T01:27:59.929Z,1.70
2019-05-15T01:30:28.727Z,1.50
2019-05-15T01:33:01.765Z,1.53
2019-05-15T01:35:33.097Z,1.70
2019-05-15T01:38:01.478Z,1.50
2019-05-15T01:40:30.106Z,1.67
2019-05-15T01:42:58.481Z,1.37
2019-05-15T01:45:29.623Z,1.80
2019-05-15T01:48:04.009Z,1.50
2019-05-15T01:50:35.114Z,1.33
2019-05-15T01:53:03.502Z,1.53
2019-05-15T01:55:39.555Z,1.50
2019-05-15T01:58:09.098Z,1.33
2019-05-15T02:00:42.670Z,1.50
2019-05-15T02:03:12.604Z,1.43
2019-05-15T02:05:48.088Z,1.33
2019-05-15T02:08:19.273Z,1.47
2019-05-15T02:10:49.521Z,1.53
2019-05-15T02:13:18.761Z,1.40
2019-05-15T02:15:49.783Z,1.10
2019-05-15T02:18:19.184Z,1.33
2019-05-15T02:20:49.342Z,1.43
2019-05-15T02:23:20.934Z,1.13
2019-05-15T02:25:50.963Z,1.47
2019-05-15T02:28:22.287Z,1.50
2019-05-15T02:30:58.700Z,1.37
2019-05-15T02:33:30.138Z,1.40
2019-05-15T02:36:12.511Z,1.40
2019-05-15T02:38:41.446Z,1.33
2019-05-15T02:41:20.777Z,1.40
2019-05-15T02:43:52.198Z,1.43
2019-05-15T02:46:20.597Z,1.67
2019-05-15T02:48:52.014Z,1.30
2019-05-15T02:51:21.410Z,1.80
2019-05-15T02:53:53.011Z,1.70
2019-05-15T02:56:24.422Z,2.00
2019-05-15T02:58:59.695Z,1.73
2019-05-15T03:01:29.490Z,1.37
2019-05-15T03:04:09.187Z,1.50
2019-05-15T03:06:42.015Z,1.30
2019-05-15T03:09:11.186Z,1.50
2019-05-15T03:11:41.284Z,1.60
2019-05-15T03:14:21.155Z,1.37
2019-05-15T03:16:50.432Z,1.50
2019-05-15T03:19:20.353Z,1.63
2019-05-15T03:21:51.866Z,1.70
2019-05-15T03:24:23.219Z,1.73
2019-05-15T03:26:54.533Z,1.87
2019-05-15T03:29:24.862Z,1.60
2019-05-15T03:32:13.225Z,1.87
2019-05-15T03:34:38.185Z,1.83
2019-05-15T03:37:03.227Z,1.70
2019-05-15T03:39:30.934Z,1.50
2019-05-15T03:42:05.736Z,1.60
2019-05-15T03:44:34.139Z,1.63
2019-05-15T03:47:04.053Z,1.20
2019-05-15T03:49:32.486Z,1.50
2019-05-15T03:52:02.516Z,1.80
2019-05-15T03:54:30.960Z,1.90
2019-05-15T03:57:02.466Z,1.40
2019-05-15T03:59:33.518Z,2.10
2019-05-15T04:02:01.930Z,1.60
2019-05-15T04:04:31.944Z,1.53
2019-05-15T04:07:00.348Z,1.73
2019-05-15T04:09:29.536Z,1.50
2019-05-15T04:12:01.530Z,1.47
2019-05-15T04:14:30.170Z,1.57
2019-05-15T04:16:59.461Z,1.60
2019-05-15T04:19:29.909Z,2.03
2019-05-15T04:22:00.669Z,1.83
2019-05-15T04:24:33.275Z,1.77
2019-05-15T04:27:06.266Z,1.87
2019-05-15T04:29:33.449Z,1.93
2019-05-15T04:32:05.792Z,1.60
2019-05-15T04:34:31.941Z,1.90
2019-05-15T04:37:03.065Z,1.80
2019-05-15T04:39:33.131Z,1.73
2019-05-15T04:42:01.574Z,1.60
2019-05-15T04:44:32.649Z,1.60
2019-05-15T04:47:01.271Z,1.73
2019-05-15T04:49:32.685Z,1.30
2019-05-15T04:52:03.634Z,1.20
2019-05-15T04:54:31.194Z,1.27
2019-05-15T04:57:01.222Z,1.30
2019-05-15T04:59:30.069Z,1.03
2019-05-15T05:02:16.256Z,1.60
2019-05-15T05:04:30.502Z,1.20
2019-05-15T05:07:02.062Z,1.10
2019-05-15T05:09:30.638Z,1.17
2019-05-15T05:12:00.617Z,1.37
2019-05-15T05:14:29.001Z,1.20
2019-05-15T05:17:00.716Z,1.37
2019-05-15T05:19:29.397Z,1.27
2019-05-15T05:21:59.663Z,1.30
2019-05-15T05:24:32.180Z,1.30
2019-05-15T05:27:01.488Z,1.13
2019-05-15T05:29:29.874Z,1.20
2019-05-15T05:31:59.806Z,1.30
2019-05-15T05:34:28.428Z,1.30
2019-05-15T05:37:01.554Z,1.30
2019-05-15T05:39:30.001Z,1.43
2019-05-15T05:41:58.761Z,1.20
2019-05-15T05:44:29.185Z,1.23
2019-05-15T05:46:58.210Z,1.40
2019-05-15T05:49:28.823Z,1.20
2019-05-15T05:51:58.757Z,1.27
2019-05-15T05:54:28.775Z,1.30
2019-05-15T05:56:58.618Z,1.40
2019-05-15T05:59:28.433Z,1.50
2019-05-15T06:01:59.018Z,1.20
2019-05-15T06:04:28.409Z,1.20
2019-05-15T06:07:07.085Z,1.42
2019-05-15T06:09:30.890Z,1.40
2019-05-15T06:12:02.258Z,1.17
2019-05-15T06:14:30.898Z,1.10
2019-05-15T06:16:59.280Z,1.15
2019-05-15T06:19:28.674Z,1.17
2019-05-15T06:22:00.916Z,1.00
2019-05-15T06:24:30.598Z,1.40
2019-05-15T06:26:59.487Z,1.20
2019-05-15T06:29:28.310Z,1.20
2019-05-15T06:31:58.666Z,1.10
2019-05-15T06:34:28.551Z,1.15
2019-05-15T06:36:58.898Z,1.05
2019-05-15T06:39:28.403Z,1.10
2019-05-15T06:41:58.822Z,1.25
2019-05-15T06:44:28.051Z,1.00
2019-05-15T06:46:58.730Z,1.10
2019-05-15T06:49:28.605Z,0.90
2019-05-15T06:51:59.425Z,1.10
2019-05-15T06:54:28.444Z,0.90
2019-05-15T06:56:58.563Z,0.90
2019-05-15T06:59:30.046Z,1.00
2019-05-15T07:01:59.355Z,0.85
2019-05-15T07:04:33.318Z,0.95
2019-05-15T07:07:01.763Z,1.47
2019-05-15T07:09:30.206Z,1.00
2019-05-15T07:12:00.432Z,0.95
2019-05-15T07:14:33.421Z,0.90
2019-05-15T07:17:01.900Z,0.82
2019-05-15T07:19:30.449Z,0.72
2019-05-15T07:21:58.862Z,0.80
2019-05-15T07:24:28.922Z,0.80
2019-05-15T07:26:59.161Z,0.90
2019-05-15T07:29:29.309Z,0.60
2019-05-15T07:31:58.585Z,0.77
2019-05-15T07:34:28.357Z,0.90
2019-05-15T07:37:02.983Z,1.00
2019-05-15T07:39:31.373Z,0.80
2019-05-15T07:41:59.772Z,0.60
2019-05-15T07:44:31.195Z,0.80
2019-05-15T07:46:59.816Z,0.77
2019-05-15T07:49:28.867Z,0.60
2019-05-15T07:51:59.213Z,0.90
2019-05-15T07:54:34.373Z,0.75
2019-05-15T07:57:05.839Z,0.78
2019-05-15T07:59:34.230Z,0.78
2019-05-15T08:02:02.645Z,1.15
2019-05-15T08:04:33.626Z,0.95
2019-05-15T08:07:03.971Z,1.45
2019-05-15T08:09:34.057Z,2.00
2019-05-15T08:12:11.190Z,4.25
2019-05-15T08:14:39.820Z,5.90
2019-05-15T08:17:11.662Z,5.12
2019-05-15T08:19:40.098Z,5.90
2019-05-15T08:22:15.083Z,4.53
2019-05-15T08:24:48.710Z,2.70
2019-05-15T08:27:23.679Z,1.67
2019-05-15T08:29:59.214Z,1.60
2019-05-15T08:32:32.520Z,1.00
2019-05-15T08:35:00.894Z,1.03
2019-05-15T08:37:32.092Z,0.90
2019-05-15T08:40:08.729Z,0.70
2019-05-15T08:42:42.125Z,0.78
2019-05-15T08:45:13.352Z,1.07
2019-05-15T08:47:41.726Z,1.22
2019-05-15T08:50:14.590Z,1.12
2019-05-15T08:52:48.524Z,0.95
2019-05-15T08:55:20.270Z,1.00
2019-05-15T08:57:55.523Z,1.45
2019-05-15T09:00:20.734Z,0.88
2019-05-15T09:02:49.375Z,0.93
2019-05-15T09:05:18.765Z,1.40
2019-05-15T09:07:58.011Z,1.00
2019-05-15T09:10:32.276Z,1.00
2019-05-15T09:13:00.656Z,1.25
2019-05-15T09:15:35.183Z,1.30
2019-05-15T09:18:14.342Z,1.45
2019-05-15T09:20:38.166Z,1.05
2019-05-15T09:23:05.441Z,1.00
2019-05-15T09:25:38.840Z,0.90
2019-05-15T09:28:08.718Z,0.80
2019-05-15T09:30:39.099Z,0.85
2019-05-15T09:33:13.318Z,1.00
2019-05-15T09:35:41.690Z,1.17
2019-05-15T09:38:10.168Z,1.00
2019-05-15T09:40:46.126Z,0.85
2019-05-15T09:43:11.074Z,0.90
2019-05-15T09:45:40.313Z,1.20
2019-05-15T09:48:11.040Z,1.00
2019-05-15T09:50:39.800Z,1.50
2019-05-15T09:53:09.259Z,1.50
2019-05-15T09:55:41.170Z,1.27
2019-05-15T09:58:09.570Z,1.20
2019-05-15T10:00:38.709Z,1.50
2019-05-15T10:03:09.531Z,1.50
2019-05-15T10:05:38.916Z,1.17
2019-05-15T10:08:09.105Z,1.00
2019-05-15T10:10:38.673Z,1.07
2019-05-15T10:13:09.015Z,1.30
2019-05-15T10:15:38.987Z,1.27
2019-05-15T10:18:09.878Z,1.10
2019-05-15T10:20:40.504Z,1.17
2019-05-15T10:23:09.013Z,1.10
2019-05-15T10:25:38.965Z,1.12
2019-05-15T10:28:15.386Z,1.25
2019-05-15T10:30:45.462Z,1.35
2019-05-15T10:33:13.894Z,1.17
2019-05-15T10:35:45.346Z,1.30
2019-05-15T10:38:14.350Z,1.25
2019-05-15T10:40:58.662Z,0.93
2019-05-15T10:43:14.481Z,1.00
2019-05-15T10:45:49.740Z,1.12
2019-05-15T10:48:18.730Z,1.10
2019-05-15T10:50:48.358Z,0.85
2019-05-15T10:53:19.039Z,1.32
2019-05-15T10:55:49.461Z,1.00
2019-05-15T10:58:22.218Z,1.00
2019-05-15T11:00:52.133Z,1.17
2019-05-15T11:03:25.881Z,1.00
2019-05-15T11:06:01.692Z,1.07
2019-05-15T11:08:32.959Z,1.12
2019-05-15T11:11:03.070Z,1.07
2019-05-15T11:13:38.127Z,0.80
2019-05-15T11:16:07.010Z,0.78
2019-05-15T11:18:43.145Z,0.95
2019-05-15T11:21:11.780Z,0.98
2019-05-15T11:23:42.851Z,1.20
2019-05-15T11:26:15.510Z,1.07
2019-05-15T11:28:44.206Z,1.27
2019-05-15T11:31:14.493Z,1.17
2019-05-15T11:33:45.881Z,0.93
2019-05-15T11:36:14.284Z,1.20
2019-05-15T11:38:42.745Z,0.90
2019-05-15T11:41:12.933Z,0.80
2019-05-15T11:43:41.582Z,1.32
2019-05-15T11:46:12.409Z,1.10
2019-05-15T11:48:40.807Z,1.00
2019-05-15T11:51:10.550Z,1.07
2019-05-15T11:53:40.681Z,1.50
2019-05-15T11:56:09.660Z,1.35
2019-05-15T11:58:39.377Z,1.02
2019-05-15T12:01:10.257Z,1.42
2019-05-15T12:03:41.678Z,1.52
2019-05-15T12:06:19.013Z,0.93
2019-05-15T12:08:44.578Z,1.20
2019-05-15T12:11:31.099Z,1.10
2019-05-15T12:13:48.771Z,1.05
2019-05-15T12:16:19.910Z,0.90
2019-05-15T12:18:51.165Z,0.88
2019-05-15T12:21:20.069Z,1.15
2019-05-15T12:23:50.373Z,1.10
2019-05-15T12:26:18.762Z,1.10
2019-05-15T12:28:48.935Z,1.15
2019-05-15T12:31:17.262Z,1.32
2019-05-15T12:33:45.642Z,0.90
2019-05-15T12:36:14.044Z,1.10
2019-05-15T12:38:45.217Z,0.80
2019-05-15T13:01:29.636Z,1.02
2019-05-15T13:04:02.517Z,0.90
2019-05-15T13:06:31.147Z,0.90
2019-05-15T13:09:01.173Z,1.22
2019-05-15T13:11:29.794Z,1.20
2019-05-15T13:14:01.760Z,1.00
2019-05-15T13:16:30.445Z,0.93
2019-05-15T13:19:00.610Z,0.90
2019-05-15T13:21:29.673Z,1.33
2019-05-15T13:24:01.599Z,1.10
2019-05-15T13:26:30.230Z,1.00
2019-05-15T13:28:59.969Z,1.10
2019-05-15T13:31:31.254Z,1.10
2019-05-15T13:33:59.673Z,0.82
2019-05-15T13:36:28.938Z,1.00
2019-05-15T13:38:57.914Z,0.88
2019-05-15T13:41:28.301Z,1.05
2019-05-15T13:43:58.435Z,0.88
2019-05-15T13:46:29.237Z,0.90
2019-05-15T13:49:08.362Z,1.10
2019-05-15T13:51:38.431Z,1.00
2019-05-15T13:54:08.684Z,1.00
2019-05-15T13:56:38.198Z,1.00
2019-05-15T13:59:10.929Z,1.00
2019-05-15T14:01:45.246Z,1.15
2019-05-15T14:04:13.919Z,1.20
2019-05-15T14:06:42.305Z,1.00
2019-05-15T14:09:13.898Z,1.00
2019-05-15T14:11:42.539Z,1.27
2019-05-15T14:14:12.562Z,0.70
2019-05-15T14:16:40.953Z,0.80
2019-05-15T14:19:09.361Z,1.00
2019-05-15T14:21:38.067Z,0.90
2019-05-15T14:24:09.342Z,0.78
2019-05-15T14:26:41.610Z,0.90
2019-05-15T14:29:09.971Z,1.00
2019-05-15T14:31:39.545Z,0.70
2019-05-15T14:34:13.967Z,0.78
2019-05-15T14:36:45.059Z,0.72
2019-05-15T14:39:16.659Z,0.70
2019-05-15T14:41:50.892Z,0.93
2019-05-15T14:44:21.875Z,0.80
2019-05-15T14:46:53.956Z,0.78
2019-05-15T14:49:22.373Z,0.90
2019-05-15T14:52:04.529Z,1.07
2019-05-15T14:54:28.985Z,0.90
2019-05-15T14:57:00.261Z,0.75
2019-05-15T14:59:29.093Z,0.80
2019-05-15T15:01:58.082Z,0.80
2019-05-15T15:04:29.007Z,0.72
2019-05-15T15:07:00.572Z,0.78
2019-05-15T15:09:29.993Z,0.80
2019-05-15T15:11:58.381Z,0.80
2019-05-15T15:14:28.549Z,0.65
2019-05-15T15:16:56.892Z,0.70
2019-05-15T15:19:25.261Z,0.65
2019-05-15T15:21:53.659Z,0.85
2019-05-15T15:24:24.838Z,0.70
2019-05-15T15:26:53.230Z,0.50
2019-05-15T15:29:21.613Z,1.10
2019-05-15T15:31:53.207Z,0.70
2019-05-15T15:34:21.596Z,0.70
2019-05-15T15:36:51.524Z,0.60
2019-05-15T15:39:22.776Z,0.65
2019-05-15T15:41:51.177Z,0.57
2019-05-15T15:44:19.806Z,0.80
2019-05-15T15:46:52.884Z,0.70
2019-05-15T15:49:21.527Z,0.80
2019-05-15T15:51:50.138Z,0.57
2019-05-15T15:54:21.481Z,0.90
2019-05-15T15:56:49.871Z,0.78
2019-05-15T16:02:01.322Z,0.50
2019-05-15T16:04:32.731Z,0.50
2019-05-15T16:07:02.751Z,0.60
2019-05-15T16:09:31.140Z,0.55
2019-05-15T16:11:59.532Z,0.60
2019-05-15T16:14:29.619Z,0.65
2019-05-15T16:17:00.933Z,0.78
2019-05-15T16:19:29.819Z,0.68
2019-05-15T16:21:59.526Z,0.50
2019-05-15T16:24:29.285Z,0.70
2019-05-15T16:27:00.956Z,0.68
2019-05-15T16:29:32.170Z,0.70
2019-05-15T16:32:00.584Z,0.72
2019-05-15T16:34:28.961Z,0.60
2019-05-15T16:37:00.351Z,1.00
2019-05-15T16:39:38.190Z,0.72
2019-05-15T16:42:09.511Z,0.60
2019-05-15T16:44:41.181Z,1.00
2019-05-15T16:47:15.595Z,0.70
2019-05-15T16:49:48.518Z,0.72
2019-05-15T16:52:18.145Z,0.80
2019-05-15T16:54:49.034Z,0.93
2019-05-15T16:57:18.434Z,0.93
2019-05-15T16:59:48.165Z,0.80
2019-05-15T17:02:20.749Z,0.70
2019-05-15T17:04:49.143Z,0.90
2019-05-15T17:07:18.188Z,0.83
2019-05-15T17:09:51.049Z,0.73
2019-05-15T17:12:27.815Z,0.70
2019-05-15T17:14:58.405Z,0.80
2019-05-15T17:17:26.742Z,0.63
2019-05-15T17:19:55.126Z,0.77
2019-05-15T17:22:28.732Z,0.70
2019-05-15T17:27:20.462Z,0.63
2019-05-15T17:29:51.570Z,0.60
2019-05-15T17:32:19.951Z,0.80
2019-05-15T17:34:48.867Z,0.90
2019-05-15T17:37:21.853Z,0.70
2019-05-15T17:39:52.933Z,0.73
2019-05-15T17:42:22.570Z,1.00
2019-05-15T17:44:51.225Z,0.80
2019-05-15T17:47:28.444Z,0.70
2019-05-15T17:49:58.734Z,0.73
2019-05-15T17:52:28.788Z,0.83
2019-05-15T17:54:59.509Z,0.80
2019-05-15T17:57:35.129Z,0.70
2019-05-15T18:00:10.036Z,0.80
2019-05-15T18:02:38.015Z,0.80
2019-05-15T18:05:08.960Z,0.63
2019-05-15T18:07:38.946Z,0.60
2019-05-15T18:10:12.428Z,0.80
2019-05-15T18:12:43.419Z,0.73
2019-05-15T18:15:13.613Z,0.70
2019-05-15T18:17:44.888Z,1.03
2019-05-15T18:20:29.901Z,0.60
2019-05-15T18:22:59.657Z,0.90
2019-05-15T18:25:31.137Z,0.80
2019-05-15T18:27:59.587Z,0.80
2019-05-15T18:30:30.457Z,0.70
2019-05-15T18:33:00.500Z,0.80
2019-05-15T18:35:32.772Z,0.77
2019-05-15T18:38:00.637Z,0.80
2019-05-15T18:40:29.049Z,0.83
2019-05-15T18:43:01.794Z,0.80
2019-05-15T18:45:33.382Z,0.60
2019-05-15T18:48:01.780Z,0.80
2019-05-15T18:50:34.204Z,0.70
2019-05-15T18:53:02.614Z,0.90
2019-05-15T18:55:34.000Z,0.60
2019-05-15T18:58:05.089Z,0.70
2019-05-15T19:00:36.592Z,0.90
2019-05-15T19:03:18.283Z,0.70
2019-05-15T19:05:35.109Z,0.73
2019-05-15T19:08:08.286Z,0.80
2019-05-15T19:10:38.763Z,0.70
2019-05-15T19:13:12.357Z,0.80
2019-05-15T19:15:41.674Z,0.70
2019-05-15T19:18:13.511Z,0.73
2019-05-15T19:20:42.134Z,0.70
2019-05-15T19:23:13.460Z,0.60
2019-05-15T19:25:44.293Z,0.80
2019-05-15T19:28:12.685Z,0.83
2019-05-15T19:30:43.803Z,0.90
2019-05-15T19:33:13.737Z,0.90
2019-05-15T19:35:42.127Z,0.80
2019-05-15T19:38:13.525Z,1.00
2019-05-15T19:40:43.441Z,0.77
2019-05-15T19:43:11.839Z,0.70
2019-05-15T19:45:47.804Z,0.90
2019-05-15T19:48:20.590Z,1.00
2019-05-15T19:50:54.876Z,0.90
2019-05-15T19:53:28.188Z,1.10
2019-05-15T19:55:57.915Z,0.90
2019-05-15T19:58:28.473Z,0.97
2019-05-15T20:01:04.250Z,0.93
2019-05-15T20:03:49.378Z,0.80
2019-05-15T20:06:08.663Z,0.90
2019-05-15T20:08:38.573Z,0.97
2019-05-15T20:11:10.522Z,0.80
2019-05-15T20:13:38.937Z,0.87
2019-05-15T20:16:07.394Z,0.90
2019-05-15T20:18:38.747Z,0.83
2019-05-15T20:21:09.804Z,0.80
2019-05-15T20:23:39.473Z,0.80
2019-05-15T20:26:11.614Z,0.80
2019-05-15T20:28:43.997Z,0.80
2019-05-15T20:31:15.213Z,0.70
2019-05-15T20:33:48.377Z,0.87
2019-05-15T20:36:18.311Z,0.90
2019-05-15T20:38:49.762Z,1.10
2019-05-15T20:41:22.482Z,1.00
2019-05-15T20:43:52.589Z,0.80
2019-05-15T20:46:22.618Z,0.70
2019-05-15T20:48:51.013Z,0.90
2019-05-15T20:51:22.533Z,0.97
2019-05-15T20:53:57.833Z,0.80
2019-05-15T20:56:29.694Z,0.70
2019-05-15T20:58:58.414Z,0.97
2019-05-15T21:01:32.973Z,0.80
2019-05-15T21:04:01.408Z,0.93
2019-05-15T21:06:33.802Z,1.00
2019-05-15T21:09:02.197Z,1.00
2019-05-15T21:11:39.746Z,0.90
2019-05-15T21:14:08.711Z,1.10
2019-05-15T21:16:38.140Z,0.80
2019-05-15T21:19:08.578Z,0.90
2019-05-15T21:21:38.615Z,0.93
2019-05-15T21:24:13.593Z,1.20
2019-05-15T21:26:41.996Z,0.93
2019-05-15T21:29:10.381Z,0.90
2019-05-15T21:31:41.306Z,1.00
2019-05-15T21:34:14.036Z,0.80
2019-05-15T21:36:48.365Z,0.80
2019-05-15T21:39:17.338Z,1.07
2019-05-15T21:41:48.729Z,0.80
2019-05-15T21:44:21.229Z,1.00
2019-05-15T21:46:50.104Z,0.90
2019-05-15T21:49:19.805Z,1.00
2019-05-15T21:51:48.233Z,0.93
2019-05-15T21:54:17.970Z,0.90
2019-05-15T21:57:06.761Z,0.90
2019-05-15T21:59:28.045Z,0.80
2019-05-15T22:01:58.753Z,0.90
2019-05-15T22:04:28.074Z,0.90
2019-05-15T22:06:58.532Z,1.00
2019-05-15T22:09:29.095Z,0.87
2019-05-15T22:12:01.183Z,1.10
2019-05-15T22:14:29.193Z,1.30
2019-05-15T22:16:58.140Z,0.77
2019-05-15T22:19:30.676Z,1.20
2019-05-15T22:21:59.117Z,1.20
2019-05-15T22:24:30.158Z,1.00
2019-05-15T22:27:01.733Z,1.00
2019-05-15T22:29:33.391Z,1.00
2019-05-15T22:32:04.733Z,0.93
2019-05-15T22:34:33.138Z,0.90
2019-05-15T22:37:01.525Z,1.10
2019-05-15T22:39:35.125Z,1.10
2019-05-15T22:42:08.329Z,1.10
2019-05-15T22:44:47.729Z,0.97
2019-05-15T22:47:17.897Z,1.10
2019-05-15T22:49:48.553Z,1.33
2019-05-15T22:52:19.137Z,1.17
2019-05-15T22:54:47.922Z,1.10
2019-05-15T22:57:27.966Z,1.03
2019-05-15T22:59:58.106Z,1.40
2019-05-15T23:02:30.617Z,1.40
2019-05-15T23:05:02.008Z,1.27
2019-05-15T23:07:32.026Z,1.30
2019-05-15T23:10:02.058Z,1.13
2019-05-15T23:12:33.226Z,1.40
2019-05-15T23:15:04.157Z,1.30
2019-05-15T23:17:32.542Z,1.20
2019-05-15T23:20:00.946Z,1.70
2019-05-15T23:22:32.057Z,1.30
2019-05-15T23:25:07.584Z,2.70
2019-05-15T23:27:40.435Z,1.83
2019-05-15T23:30:13.155Z,2.03
2019-05-15T23:32:41.800Z,1.23
2019-05-15T23:35:10.246Z,1.40
2019-05-15T23:37:44.262Z,1.17
2019-05-15T23:40:41.065Z,1.03
2019-05-15T23:43:09.714Z,1.03
2019-05-15T23:45:38.953Z,1.10
2019-05-15T23:48:12.765Z,1.40
2019-05-15T23:50:43.035Z,1.30
2019-05-15T23:53:11.425Z,1.20
2019-05-15T23:55:44.107Z,1.10
2019-05-15T23:58:14.145Z,1.10
